Time;durP1;ratioP1;P1;durP2;ratioP2;P2;SDS_P1;SDS_P2;PMS_P1;PMS_P2;Temp;Humidity;BMP_temperature;BMP_pressure;BME280_temperature;BME280_humidity;BME280_pressure;Samples;Min_cycle;Max_cycle;Signal;HPM_P1;HPM_P2
2024/01/14 00:03:16;;;;;;;26.50;16.23;;;;;;;1.63;42.88;100130.75;10390702;28;20254;-72
2024/01/14 00:08:18;;;;;;;34.70;17.37;;;;;;;1.87;43.12;99972.28;10386685;28;20248;-71
2024/01/14 00:13:19;;;;;;;31.87;16.13;;;;;;;1.62;43.62;100034.06;10389559;28;20316;-73
2024/01/14 00:18:21;;;;;;;29.10;15.93;;;;;;;0.73;45.36;100017.13;10394115;28;20302;-73
2024/01/14 00:23:23;;;;;;;27.30;14.67;;;;;;;1.00;44.48;100001.03;10394268;28;20600;-73
2024/01/14 00:28:24;;;;;;;26.30;14.60;;;;;;;0.83;44.40;100053.22;10385117;28;20296;-73
2024/01/14 00:33:26;;;;;;;29.57;14.50;;;;;;;2.18;42.98;99893.25;10395812;28;20239;-73
2024/01/14 00:38:28;;;;;;;35.20;18.17;;;;;;;1.06;44.12;100029.56;10392074;28;20247;-73
2024/01/14 00:43:30;;;;;;;31.10;15.97;;;;;;;1.87;43.39;99953.00;10390533;28;21002;-73
2024/01/14 00:48:32;;;;;;;26.40;15.27;;;;;;;0.52;44.47;100181.03;10390466;28;20298;-73
2024/01/14 00:53:34;;;;;;;33.40;18.07;;;;;;;0.82;44.56;100059.44;10396323;28;20239;-73
2024/01/14 00:58:36;;;;;;;33.80;17.23;;;;;;;-0.28;44.88;100323.38;10391191;28;20670;-73
2024/01/14 01:03:38;;;;;;;33.70;18.10;;;;;;;0.56;44.81;100092.97;10393143;28;20293;-73
2024/01/14 01:08:39;;;;;;;32.33;17.23;;;;;;;0.53;45.67;99921.16;10384498;28;20245;-73
2024/01/14 01:13:41;;;;;;;30.07;16.23;;;;;;;-0.23;46.13;100108.22;10395759;28;20718;-73
2024/01/14 01:18:43;;;;;;;34.03;17.83;;;;;;;-0.84;46.55;100184.97;10376560;28;20245;-73
2024/01/14 01:23:45;;;;;;;28.80;15.10;;;;;;;-0.88;46.32;100183.47;10385158;28;20261;-73
2024/01/14 01:28:47;;;;;;;26.20;15.30;;;;;;;0.28;44.17;100094.13;10389381;28;20314;-73
2024/01/14 01:33:48;;;;;;;28.93;15.37;;;;;;;-1.20;46.53;100206.56;10390776;28;20375;-72
2024/01/14 01:38:50;;;;;;;27.80;14.87;;;;;;;-1.10;47.09;100042.19;10372949;28;20245;-73
2024/01/14 01:43:52;;;;;;;29.13;15.73;;;;;;;0.34;44.54;99958.56;10388508;28;20302;-73
2024/01/14 01:48:54;;;;;;;31.63;17.10;;;;;;;0.42;44.90;99945.69;10375508;28;20348;-73
2024/01/14 01:53:56;;;;;;;27.30;14.30;;;;;;;-0.43;45.94;100052.56;10369271;28;20243;-73
2024/01/14 01:58:58;;;;;;;29.50;17.77;;;;;;;-0.20;45.82;99967.72;10360212;28;20356;-73
2024/01/14 02:04:02;;;;;;;32.27;17.87;;;;;;;0.66;44.09;99904.34;10393935;28;20723;-73
2024/01/14 02:09:07;;;;;;;28.00;16.27;;;;;;;0.71;44.19;99908.41;10385823;28;20240;-73
2024/01/14 02:14:09;;;;;;;32.97;17.87;;;;;;;0.83;43.83;99907.44;10392705;28;20788;-73
2024/01/14 02:19:10;;;;;;;31.73;17.77;;;;;;;0.91;44.58;99827.81;10387017;28;20232;-73
2024/01/14 02:24:27;;;;;;;28.07;15.03;;;;;;;0.85;43.59;99913.47;10382110;28;20232;-73
2024/01/14 02:29:30;;;;;;;37.30;17.60;;;;;;;0.38;44.45;99952.97;10370129;28;20246;-73
2024/01/14 02:34:35;;;;;;;38.77;17.20;;;;;;;0.99;44.42;99784.09;10386934;28;20233;-72
2024/01/14 02:39:38;;;;;;;34.93;16.63;;;;;;;-0.17;44.93;100052.53;10379101;28;20239;-72
2024/01/14 02:44:39;;;;;;;38.10;18.90;;;;;;;0.12;44.61;100004.88;10386222;28;20251;-73
2024/01/14 02:49:41;;;;;;;37.40;18.67;;;;;;;1.33;42.61;99952.78;10376828;28;20249;-73
2024/01/14 02:54:43;;;;;;;35.33;17.33;;;;;;;0.71;44.37;99811.75;10384162;28;20318;-73
2024/01/14 02:59:44;;;;;;;33.03;16.97;;;;;;;1.15;42.98;99909.38;10373489;28;20469;-72
2024/01/14 03:04:46;;;;;;;33.43;16.07;;;;;;;0.10;45.18;99917.31;10382601;28;20246;-73
2024/01/14 03:09:48;;;;;;;32.27;16.37;;;;;;;0.81;44.28;99804.81;10372137;28;20236;-73
2024/01/14 03:14:49;;;;;;;37.60;16.70;;;;;;;0.67;43.34;100028.97;10369919;28;20235;-73
2024/01/14 03:19:51;;;;;;;35.40;16.77;;;;;;;1.24;43.25;99806.69;10376267;28;20244;-73
2024/01/14 03:24:53;;;;;;;32.87;16.53;;;;;;;0.85;43.76;99877.41;10377582;28;20323;-73
2024/01/14 03:29:55;;;;;;;31.17;16.50;;;;;;;1.31;42.78;99874.75;10371538;28;20243;-72
2024/01/14 03:34:57;;;;;;;36.63;18.60;;;;;;;1.55;42.89;99790.22;10366189;28;20320;-73
2024/01/14 03:39:58;;;;;;;35.77;16.47;;;;;;;1.10;44.36;99764.81;10354755;28;20243;-73
2024/01/14 03:45:00;;;;;;;36.27;16.67;;;;;;;1.10;43.13;99954.56;10366676;28;20238;-73
2024/01/14 03:50:03;;;;;;;31.87;16.73;;;;;;;1.53;43.20;99787.69;10378222;28;20240;-73
2024/01/14 03:55:05;;;;;;;35.47;16.20;;;;;;;1.47;42.60;99920.06;10391709;28;20286;-73
2024/01/14 04:00:08;;;;;;;38.70;18.53;;;;;;;1.41;42.72;99897.66;10377211;28;20330;-73
2024/01/14 04:05:10;;;;;;;37.13;16.73;;;;;;;1.94;42.08;99848.59;10375037;28;20233;-73
2024/01/14 04:10:12;;;;;;;34.57;16.57;;;;;;;2.66;41.13;99767.72;10368453;28;20331;-73
2024/01/14 04:15:14;;;;;;;31.60;15.93;;;;;;;1.49;42.58;99943.69;10390091;28;20230;-73
2024/01/14 04:20:16;;;;;;;40.70;18.63;;;;;;;1.17;43.07;99950.50;10416211;22;20403;-35
2024/01/14 04:25:18;;;;;;;31.57;16.30;;;;;;;1.68;42.33;99933.34;10276787;28;20241;-34
2024/01/14 04:30:20;;;;;;;26.50;13.57;;;;;;;-1.43;45.93;100234.28;10271467;28;20237;-35
2024/01/14 04:35:22;;;;;;;26.37;13.43;;;;;;;-0.23;45.58;99826.78;10438652;23;20577;-34
2024/01/14 04:40:23;;;;;;;28.20;14.97;;;;;;;-0.34;44.97;99945.88;10429371;28;20242;-34
2024/01/14 04:45:25;;;;;;;24.53;13.63;;;;;;;0.17;44.47;99855.38;10419732;28;20252;-35
2024/01/14 04:50:27;;;;;;;26.60;15.67;;;;;;;-0.09;44.32;100002.00;10425503;28;20247;-36
2024/01/14 04:55:29;;;;;;;27.80;16.27;;;;;;;-0.67;44.91;100091.88;10438657;28;20653;-35
2024/01/14 05:00:30;;;;;;;28.03;13.63;;;;;;;-0.19;44.15;100032.56;10431340;28;20327;-34
2024/01/14 05:05:32;;;;;;;22.37;13.43;;;;;;;-0.03;44.91;99848.13;10439586;28;20724;-34
2024/01/14 05:10:34;;;;;;;21.27;12.73;;;;;;;-0.65;44.06;100141.72;10423974;28;20238;-34
2024/01/14 05:15:36;;;;;;;32.17;15.67;;;;;;;2.07;41.91;99650.44;10427942;28;20240;-33
2024/01/14 05:20:39;;;;;;;26.07;13.60;;;;;;;0.47;42.80;100006.72;10429443;28;20235;-34
2024/01/14 05:25:41;;;;;;;28.90;13.67;;;;;;;1.14;42.57;99818.94;10426975;28;20232;-35
2024/01/14 05:30:43;;;;;;;26.13;14.90;;;;;;;0.89;43.10;99777.06;10425465;28;20610;-34
2024/01/14 05:35:45;;;;;;;26.90;13.30;;;;;;;0.79;42.69;99892.84;10436773;28;20227;-35
2024/01/14 05:40:47;;;;;;;28.70;14.00;;;;;;;-0.07;44.08;99994.84;10432808;28;20656;-34
2024/01/14 05:45:49;;;;;;;37.47;19.13;;;;;;;-0.03;45.99;99730.56;10432375;28;20237;-34
2024/01/14 05:50:50;;;;;;;40.77;20.20;;;;;;;-1.41;47.19;99954.13;10422554;28;21802;-36
2024/01/14 05:55:52;;;;;;;36.00;17.97;;;;;;;-0.37;47.00;99629.72;10432478;28;20231;-34
2024/01/14 06:00:54;;;;;;;31.07;16.67;;;;;;;-1.97;47.94;99989.22;10424012;28;20236;-33
2024/01/14 06:05:56;;;;;;;35.27;18.27;;;;;;;-1.87;48.27;99863.53;10440028;28;20238;-35
2024/01/14 06:10:58;;;;;;;34.50;16.93;;;;;;;-0.66;47.26;99641.44;10422575;28;20234;-34
2024/01/14 06:16:01;;;;;;;38.23;18.63;;;;;;;-1.14;47.33;99785.97;10435157;28;20315;-34
2024/01/14 06:21:03;;;;;;;33.30;17.43;;;;;;;-1.21;48.54;99654.25;10426973;28;20745;-36
2024/01/14 06:26:05;;;;;;;39.80;18.70;;;;;;;-1.88;47.91;99927.47;10424856;28;20242;-34
2024/01/14 06:31:10;;;;;;;34.67;17.47;;;;;;;-1.11;47.12;99775.25;10399096;28;20236;-34
2024/01/14 06:36:12;;;;;;;39.33;16.20;;;;;;;-1.48;47.20;99853.09;10392411;28;20653;-35
2024/01/14 06:41:23;;;;;;;31.07;17.53;;;;;;;-0.55;47.81;99542.56;10414893;28;20249;-34
2024/01/14 06:46:25;;;;;;;34.40;16.53;;;;;;;-0.09;46.06;99589.00;10427746;28;20232;-34
2024/01/14 06:51:27;;;;;;;37.13;18.47;;;;;;;-1.17;47.12;99783.56;10409487;28;20833;-34
2024/01/14 06:56:29;;;;;;;34.70;17.90;;;;;;;0.66;45.08;99519.78;10436195;28;20227;-36
2024/01/14 07:01:30;;;;;;;34.33;17.50;;;;;;;-1.14;47.22;99778.09;10425444;28;20292;-34
2024/01/14 07:06:32;;;;;;;43.60;18.37;;;;;;;0.64;45.38;99502.44;10432493;28;20293;-34
2024/01/14 07:11:35;;;;;;;38.40;18.57;;;;;;;0.45;46.05;99476.78;10427234;28;20246;-34
2024/01/14 07:16:37;;;;;;;29.67;17.10;;;;;;;-0.85;47.80;99588.63;10432663;28;20232;-34
2024/01/14 07:21:38;;;;;;;38.20;18.07;;;;;;;-0.88;46.78;99699.19;10433873;28;20241;-34
2024/01/14 07:26:40;;;;;;;38.83;18.23;;;;;;;0.33;45.98;99465.47;10437417;28;20243;-33
2024/01/14 07:31:42;;;;;;;35.30;16.10;;;;;;;-0.23;46.25;99668.97;10409205;28;20249;-34
2024/01/14 07:36:44;;;;;;;30.17;16.00;;;;;;;-0.07;45.44;99671.25;10412993;28;20228;-34
2024/01/14 07:41:45;;;;;;;36.47;16.93;;;;;;;-1.38;46.63;99899.63;10400570;28;20339;-34
2024/01/14 07:46:47;;;;;;;32.37;15.63;;;;;;;-0.65;47.49;99535.38;10431315;28;20659;-35
2024/01/14 07:51:49;;;;;;;39.67;17.47;;;;;;;-0.61;46.08;99636.69;10434366;28;20249;-34
2024/01/14 07:56:51;;;;;;;31.80;14.40;;;;;;;-0.77;45.86;99796.47;10434074;28;20231;-33
2024/01/14 08:01:53;;;;;;;39.53;17.17;;;;;;;-0.26;44.80;99733.16;10432281;28;20247;-34
2024/01/14 08:06:55;;;;;;;40.70;18.40;;;;;;;0.51;44.62;99518.41;10437930;28;20228;-33
2024/01/14 08:11:57;;;;;;;35.17;17.90;;;;;;;-0.41;45.62;99665.09;10404299;28;20776;-33
2024/01/14 08:16:58;;;;;;;41.53;17.73;;;;;;;-0.63;47.23;99506.34;10399300;28;20811;-33
2024/01/14 08:22:00;;;;;;;32.53;15.30;;;;;;;0.20;44.65;99654.28;10393095;28;20260;-36
2024/01/14 08:27:02;;;;;;;38.83;17.53;;;;;;;-0.35;45.13;99718.06;10435437;28;20240;-33
2024/01/14 08:32:04;;;;;;;33.70;17.30;;;;;;;-1.49;46.92;99734.13;10435749;28;20323;-36
2024/01/14 08:37:05;;;;;;;39.40;18.30;;;;;;;0.94;43.18;99611.53;10434408;28;20763;-33
2024/01/14 08:42:07;;;;;;;34.20;16.57;;;;;;;0.23;44.80;99557.50;10404605;28;20240;-35
2024/01/14 08:47:09;;;;;;;35.13;17.57;;;;;;;0.99;44.06;99459.97;10402710;28;20244;-33
2024/01/14 08:52:11;;;;;;;36.93;18.77;;;;;;;0.78;42.93;99712.03;10406874;28;20240;-34
2024/01/14 08:57:13;;;;;;;47.47;25.03;;;;;;;0.71;43.95;99518.56;10433866;28;20329;-34
2024/01/14 09:02:15;;;;;;;40.10;22.97;;;;;;;1.76;42.33;99461.28;10432678;28;20450;-34
2024/01/14 09:07:18;;;;;;;42.70;21.97;;;;;;;0.05;44.50;99690.50;10418664;28;20297;-33
2024/01/14 09:12:20;;;;;;;40.60;20.93;;;;;;;0.20;44.61;99612.19;10421145;28;20724;-34
2024/01/14 09:17:22;;;;;;;35.67;16.20;;;;;;;0.31;44.95;99555.09;10425231;28;20270;-34
2024/01/14 09:22:23;;;;;;;32.80;15.07;;;;;;;-0.11;44.60;99710.13;10429484;28;20334;-34
2024/01/14 09:27:27;;;;;;;32.60;16.53;;;;;;;0.45;43.43;99680.34;10428228;28;20693;-33
2024/01/14 09:32:29;;;;;;;25.90;13.67;;;;;;;-1.02;46.14;99687.06;10431498;28;20594;-34
2024/01/14 09:37:31;;;;;;;30.10;15.17;;;;;;;0.47;44.05;99538.03;10435837;28;20292;-34
2024/01/14 09:42:36;;;;;;;32.13;17.77;;;;;;;0.38;44.81;99508.03;10395944;28;20294;-34
2024/01/14 09:47:39;;;;;;;26.47;14.77;;;;;;;0.57;42.90;99691.69;10381851;28;20237;-34
2024/01/14 09:52:41;;;;;;;36.70;14.87;;;;;;;-0.15;44.20;99749.91;10392459;28;20323;-34
2024/01/14 09:57:47;;;;;;;37.17;16.50;;;;;;;-0.02;43.66;99742.78;10419735;28;20301;-33
2024/01/14 10:02:49;;;;;;;38.63;17.10;;;;;;;0.18;43.93;99577.25;10434054;28;20246;-34
2024/01/14 10:07:51;;;;;;;40.67;18.40;;;;;;;-0.11;44.43;99654.88;10422119;28;20875;-34
2024/01/14 10:12:53;;;;;;;31.23;17.20;;;;;;;-0.03;43.47;99724.47;10428609;28;20569;-34
2024/01/14 10:17:54;;;;;;;27.40;15.87;;;;;;;0.37;42.47;99771.41;10429989;28;20269;-35
2024/01/14 10:22:57;;;;;;;30.30;16.17;;;;;;;-1.18;45.11;99868.53;10429908;28;20235;-34
2024/01/14 10:28:05;;;;;;;38.80;20.10;;;;;;;0.01;43.90;99632.03;10423247;28;20249;-34
2024/01/14 10:33:09;;;;;;;39.67;19.57;;;;;;;0.63;43.06;99550.78;10423188;22;20290;-72
2024/01/14 10:38:23;;;;;;;38.57;17.60;;;;;;;-0.14;43.66;99715.59;10364003;28;20714;-71
2024/01/14 10:43:26;;;;;;;36.63;19.47;;;;;;;1.68;41.56;99455.84;10351475;28;20260;-71
2024/01/14 10:48:28;;;;;;;41.40;20.07;;;;;;;1.36;41.13;99617.69;10365572;28;20244;-71
2024/01/14 10:53:36;;;;;;;25.00;13.83;;;;;;;-2.44;45.69;100061.22;10375052;28;20858;-72
2024/01/14 10:58:41;;;;;;;35.33;18.70;;;;;;;-0.51;45.01;99612.38;10358111;28;20671;-72
2024/01/14 11:06:20;;;;;;;33.90;17.60;;;;;;;-2.22;47.16;99663.97;10526561;27;20308;-71
2024/01/14 11:11:30;;;;;;;34.87;19.27;;;;;;;-1.34;47.00;99361.22;10458363;28;20416;-72
2024/01/14 11:16:38;;;;;;;32.00;16.63;;;;;;;-0.76;45.30;99413.66;10496779;28;20244;-71
2024/01/14 11:21:58;;;;;;;28.80;15.00;;;;;;;-2.61;48.13;99577.50;10488497;28;20238;-71
2024/01/14 11:27:20;;;;;;;31.50;16.77;;;;;;;-0.94;46.23;99263.56;10478062;28;20238;-69
2024/01/14 11:32:26;;;;;;;36.70;19.60;;;;;;;-0.11;45.11;99247.16;10469534;28;20241;-70
2024/01/14 11:37:36;;;;;;;28.50;15.47;;;;;;;-0.69;44.54;99522.59;10504223;28;20241;-71
2024/01/14 11:42:49;;;;;;;28.67;17.43;;;;;;;-2.32;47.89;99452.31;10513322;28;20357;-71
2024/01/14 11:47:52;;;;;;;36.17;17.53;;;;;;;-1.27;46.68;99346.69;10506980;28;20465;-71
2024/01/14 11:52:57;;;;;;;32.17;16.40;;;;;;;-1.91;45.94;99623.38;10512287;28;20622;-71
2024/01/14 11:58:28;;;;;;;39.83;18.03;;;;;;;-0.33;44.47;99310.38;10506115;28;20242;-70
2024/01/14 12:03:30;;;;;;;38.13;18.73;;;;;;;0.55;43.38;99301.28;10486370;28;20237;-69
2024/01/14 12:08:31;;;;;;;33.23;17.53;;;;;;;0.45;43.12;99334.63;10505966;28;20253;-71
2024/01/14 12:13:33;;;;;;;34.13;16.53;;;;;;;-0.37;43.68;99525.38;10506453;28;20291;-71
2024/01/14 12:18:41;;;;;;;36.47;18.50;;;;;;;-0.75;44.40;99502.88;10459697;28;20253;-70
2024/01/14 12:23:47;;;;;;;29.47;16.67;;;;;;;-0.63;44.66;99435.41;10487289;28;20238;-69
2024/01/14 12:28:49;;;;;;;36.20;18.30;;;;;;;-0.38;44.45;99333.56;10489223;28;20317;-69
2024/01/14 12:33:51;;;;;;;35.80;17.50;;;;;;;-0.31;43.83;99377.66;10494968;28;20223;-69
2024/01/14 12:38:53;;;;;;;36.37;18.83;;;;;;;-0.43;44.40;99329.53;10469795;28;20364;-69
2024/01/14 12:43:57;;;;;;;37.63;19.33;;;;;;;0.03;43.52;99246.00;10474033;28;20796;-70
2024/01/14 12:49:05;;;;;;;36.03;17.47;;;;;;;0.46;43.48;99159.88;10432938;28;20327;-69
2024/01/14 12:54:19;;;;;;;36.30;19.30;;;;;;;1.03;42.62;99142.53;10475611;28;20234;-69
2024/01/14 12:59:28;;;;;;;26.83;13.40;;;;;;;-0.57;44.39;99355.25;10470465;28;20246;-69
2024/01/14 13:04:32;;;;;;;37.63;18.90;;;;;;;0.48;43.08;99157.97;10478997;28;20245;-69
2024/01/14 13:09:34;;;;;;;35.53;17.63;;;;;;;-0.33;43.80;99258.63;10465484;28;20263;-69
2024/01/14 13:14:36;;;;;;;23.30;13.77;;;;;;;-0.51;43.38;99396.81;10437804;28;20280;-68
2024/01/14 13:19:38;;;;;;;31.60;16.47;;;;;;;0.67;42.62;99113.22;10444237;28;20297;-70
2024/01/14 13:24:40;;;;;;;37.07;19.37;;;;;;;-0.01;42.67;99322.66;10475742;28;20383;-69
2024/01/14 13:29:42;;;;;;;35.73;18.17;;;;;;;1.00;42.65;99073.44;10459592;28;20254;-67
2024/01/14 13:34:43;;;;;;;36.00;17.73;;;;;;;-0.67;43.15;99479.47;10443330;28;20238;-69
2024/01/14 13:39:45;;;;;;;30.93;16.43;;;;;;;-1.88;44.88;99549.72;10481435;28;20323;-69
2024/01/14 13:44:47;;;;;;;37.93;19.40;;;;;;;0.18;43.73;99064.94;10469138;28;20231;-69
2024/01/14 13:49:49;;;;;;;37.40;18.57;;;;;;;-0.34;43.63;99309.53;10481063;28;20500;-69
2024/01/14 13:54:51;;;;;;;36.70;19.27;;;;;;;0.50;43.12;99082.31;10482087;28;20231;-69
2024/01/14 13:59:52;;;;;;;36.63;18.40;;;;;;;1.47;41.90;98957.53;10454003;28;20243;-70
2024/01/14 14:04:54;;;;;;;35.90;19.33;;;;;;;0.76;42.61;99189.78;10434056;28;20250;-68
2024/01/14 14:10:10;;;;;;;35.57;19.67;;;;;;;0.13;42.84;99301.31;10433546;28;20235;-70
2024/01/14 14:15:13;;;;;;;32.13;17.60;;;;;;;0.53;42.67;99212.84;10458264;28;20771;-69
2024/01/14 14:20:15;;;;;;;33.70;16.37;;;;;;;0.12;42.33;99332.06;10476694;28;20243;-67
2024/01/14 14:25:17;;;;;;;34.20;19.13;;;;;;;0.70;42.22;99191.16;10456273;28;20605;-69
2024/01/14 14:30:23;;;;;;;37.30;18.47;;;;;;;0.84;41.59;99234.72;10433807;28;20314;-69
2024/01/14 14:35:24;;;;;;;38.30;19.10;;;;;;;1.72;41.08;99026.44;10451711;28;20234;-69
2024/01/14 14:40:26;;;;;;;33.57;16.63;;;;;;;1.55;41.69;99078.13;10472891;28;20235;-67
2024/01/14 14:45:28;;;;;;;38.00;19.43;;;;;;;0.53;43.25;99116.28;10476773;28;20235;-69
2024/01/14 14:50:30;;;;;;;32.30;16.87;;;;;;;-0.28;43.47;99308.22;10475068;28;20501;-70
2024/01/14 14:55:34;;;;;;;34.47;17.80;;;;;;;0.24;42.36;99259.16;10470801;28;20632;-69
2024/01/14 15:00:36;;;;;;;40.77;20.67;;;;;;;-0.18;44.02;99177.63;10474811;28;20236;-69
2024/01/14 15:05:38;;;;;;;35.73;18.37;;;;;;;0.05;42.58;99330.06;10472097;28;20304;-68
2024/01/14 15:10:40;;;;;;;37.97;19.50;;;;;;;-1.12;44.61;99395.38;10472565;28;20576;-70
2024/01/14 15:15:44;;;;;;;38.00;18.10;;;;;;;-0.68;44.39;99238.66;10469782;28;20801;-69
2024/01/14 15:20:46;;;;;;;31.57;17.67;;;;;;;-1.24;45.15;99336.78;10457148;28;20655;-68
2024/01/14 15:25:47;;;;;;;27.63;15.60;;;;;;;-1.45;46.41;99180.94;10480539;28;20342;-67
2024/01/14 15:30:49;;;;;;;35.27;17.17;;;;;;;-1.11;46.15;99115.22;10474213;28;20235;-69
2024/01/14 15:36:05;;;;;;;38.77;19.00;;;;;;;-0.80;45.10;99092.53;10450855;28;20827;-69
2024/01/14 15:41:08;;;;;;;33.73;17.33;;;;;;;-0.38;44.40;99041.72;10456792;28;20241;-69
2024/01/14 15:46:10;;;;;;;38.63;18.00;;;;;;;-0.84;44.58;99175.16;10468553;28;20230;-67
2024/01/14 15:51:13;;;;;;;33.57;18.30;;;;;;;-1.52;46.47;99122.03;10468290;28;20242;-69
2024/01/14 15:56:16;;;;;;;30.23;16.10;;;;;;;-2.16;47.19;99194.28;10484402;28;20238;-68
2024/01/14 16:01:19;;;;;;;31.57;15.57;;;;;;;-0.54;44.49;98984.41;10480714;28;20244;-68
2024/01/14 16:06:22;;;;;;;24.57;14.47;;;;;;;-0.65;44.72;99020.28;10478333;28;20234;-69
2024/01/14 16:11:24;;;;;;;30.70;17.37;;;;;;;0.51;42.70;98915.47;10476844;28;20230;-69
2024/01/14 16:16:26;;;;;;;34.07;18.23;;;;;;;-0.76;43.34;99234.97;10461480;28;20237;-69
2024/01/14 16:21:28;;;;;;;36.53;18.90;;;;;;;0.74;42.10;98931.78;10452027;28;20283;-69
2024/01/14 16:26:29;;;;;;;32.80;18.17;;;;;;;-0.60;43.85;99209.13;10449171;28;20228;-70
2024/01/14 16:31:31;;;;;;;36.20;18.70;;;;;;;0.22;43.30;98954.97;10437318;28;20243;-69
2024/01/14 16:36:33;;;;;;;30.97;17.23;;;;;;;-0.38;44.29;99007.56;10462028;28;20246;-69
2024/01/14 16:41:36;;;;;;;31.07;17.87;;;;;;;-0.80;44.39;99098.59;10481173;28;20623;-69
2024/01/14 16:46:39;;;;;;;37.57;18.83;;;;;;;-2.95;48.51;99269.94;10480893;28;20238;-73
2024/01/14 16:51:41;;;;;;;33.40;16.70;;;;;;;-0.98;45.37;99005.56;10471167;28;20329;-69
2024/01/14 16:56:43;;;;;;;37.67;18.97;;;;;;;-0.06;43.82;98902.19;10477584;28;20233;-71
2024/01/14 17:01:45;;;;;;;35.70;19.40;;;;;;;-0.41;44.32;99058.63;10447615;28;20340;-71
2024/01/14 17:06:47;;;;;;;31.60;17.67;;;;;;;0.18;43.14;98949.16;10451877;28;20258;-69
2024/01/14 17:11:49;;;;;;;37.20;17.83;;;;;;;-0.98;44.41;99121.97;10472295;28;20230;-70
2024/01/14 17:16:51;;;;;;;33.03;16.63;;;;;;;-1.27;45.15;99123.53;10439499;28;20587;-70
2024/01/14 17:21:53;;;;;;;38.60;17.87;;;;;;;0.03;43.31;98932.94;10462773;28;20238;-69
2024/01/14 17:26:54;;;;;;;30.27;16.47;;;;;;;-0.45;43.81;99044.91;10480511;28;20228;-70
2024/01/14 17:31:56;;;;;;;32.03;18.40;;;;;;;-0.06;44.19;98876.72;10472169;28;20252;-70
2024/01/14 17:36:58;;;;;;;31.30;17.07;;;;;;;-0.63;44.38;99010.47;10472505;28;20227;-71
2024/01/14 17:42:00;;;;;;;37.07;18.50;;;;;;;-0.00;43.60;98937.63;10477722;28;20228;-68
2024/01/14 17:47:03;;;;;;;31.40;15.67;;;;;;;-1.35;44.92;99168.75;10472363;28;20395;-65
2024/01/14 17:52:05;;;;;;;30.57;17.13;;;;;;;-1.47;44.84;99216.97;10445391;28;20321;-68
2024/01/14 17:57:06;;;;;;;25.80;13.97;;;;;;;-1.50;44.03;99294.16;10435177;28;20321;-70
2024/01/14 18:02:08;;;;;;;32.10;17.30;;;;;;;-0.62;43.29;99090.13;10463117;28;20241;-70
2024/01/14 18:07:10;;;;;;;33.67;18.37;;;;;;;-0.63;43.38;99093.75;10477448;28;20237;-69
2024/01/14 18:12:12;;;;;;;32.30;17.50;;;;;;;-0.28;44.12;98882.25;10475804;28;20235;-70
2024/01/14 18:17:13;;;;;;;33.60;17.37;;;;;;;0.68;42.39;98822.59;10476117;28;20237;-69
2024/01/14 18:22:15;;;;;;;34.47;18.47;;;;;;;0.06;42.37;99050.22;10447137;28;20233;-70
2024/01/14 18:27:17;;;;;;;30.67;17.27;;;;;;;0.46;41.92;98973.81;10435721;28;20236;-71
2024/01/14 18:32:19;;;;;;;27.73;14.27;;;;;;;-0.14;42.99;99015.13;10431734;28;20250;-70
2024/01/14 18:37:21;;;;;;;27.97;15.73;;;;;;;1.17;40.64;99000.75;10465465;28;20235;-71
2024/01/14 18:42:23;;;;;;;34.00;18.77;;;;;;;0.87;41.66;98937.59;10457401;28;20249;-68
2024/01/14 18:47:25;;;;;;;27.87;15.30;;;;;;;-1.38;44.12;99230.22;10474689;28;20655;-70
2024/01/14 18:52:27;;;;;;;32.27;16.63;;;;;;;-0.78;44.58;98913.75;10448986;28;20799;-69
2024/01/14 18:57:30;;;;;;;33.03;16.23;;;;;;;-1.04;44.71;98915.00;10465572;28;20242;-69
2024/01/14 19:02:32;;;;;;;21.40;12.23;;;;;;;-2.20;45.60;99240.03;10474580;28;20593;-70
2024/01/14 19:07:33;;;;;;;19.20;10.83;;;;;;;-1.85;45.45;99140.31;10473021;28;20327;-70
2024/01/14 19:12:35;;;;;;;30.47;14.93;;;;;;;-1.52;45.64;98996.06;10445599;28;20687;-70
2024/01/14 19:17:37;;;;;;;30.67;16.70;;;;;;;-0.87;45.22;98839.19;10451710;28;20330;-69
2024/01/14 19:22:39;;;;;;;28.87;14.63;;;;;;;-1.12;45.49;98956.84;10471538;28;20236;-68
2024/01/14 19:27:41;;;;;;;22.07;13.17;;;;;;;-1.49;45.50;99064.06;10477010;28;20328;-69
2024/01/14 19:32:42;;;;;;;35.23;17.53;;;;;;;0.00;43.16;98899.00;10459882;28;20234;-78
2024/01/14 19:37:45;;;;;;;32.93;17.20;;;;;;;-1.04;45.14;98970.16;10465165;28;20274;-68
2024/01/14 19:42:47;;;;;;;29.53;13.87;;;;;;;-1.75;45.92;99072.19;10488382;28;20253;-74
2024/01/14 19:47:49;;;;;;;30.33;16.63;;;;;;;-1.13;46.03;98886.91;10480588;28;20241;-71
2024/01/14 19:52:50;;;;;;;30.27;16.40;;;;;;;-0.68;45.38;98826.09;10480671;28;20251;-74
2024/01/14 19:57:52;;;;;;;32.23;15.43;;;;;;;-1.43;45.37;99018.91;10478437;28;20757;-71
2024/01/14 20:02:54;;;;;;;22.97;12.27;;;;;;;-1.26;45.45;99009.66;10436201;28;20245;-71
2024/01/14 20:07:56;;;;;;;32.50;16.23;;;;;;;-2.39;45.70;99316.56;10433936;28;20241;-69
2024/01/14 20:12:57;;;;;;;32.77;16.80;;;;;;;-0.26;44.57;98828.53;10485365;28;20229;-70
2024/01/14 20:17:59;;;;;;;32.17;17.27;;;;;;;-1.04;44.87;99042.84;10481517;28;20947;-70
2024/01/14 20:23:01;;;;;;;31.73;17.00;;;;;;;-1.33;45.93;98962.06;10484149;28;20238;-69
2024/01/14 20:28:03;;;;;;;33.20;16.23;;;;;;;-1.03;45.88;98872.00;10477061;28;20223;-69
2024/01/14 20:33:04;;;;;;;33.63;17.57;;;;;;;-0.33;44.88;98824.81;10483685;28;20297;-69
2024/01/14 20:38:06;;;;;;;35.33;18.43;;;;;;;-0.69;45.03;98926.91;10476247;28;20324;-69
2024/01/14 20:43:08;;;;;;;30.67;17.17;;;;;;;-0.48;43.94;99053.06;10478275;28;20324;-69
2024/01/14 20:48:09;;;;;;;30.47;14.83;;;;;;;-1.25;45.27;99124.22;10460481;28;20320;-70
2024/01/14 20:53:12;;;;;;;21.20;13.17;;;;;;;-0.40;44.54;98967.44;10475572;28;20198;-68
2024/01/14 20:58:14;;;;;;;26.30;14.57;;;;;;;0.13;43.78;98861.91;10477554;28;20253;-71
2024/01/14 21:03:15;;;;;;;31.37;17.70;;;;;;;-0.02;43.83;98950.94;10476312;28;20241;-69
2024/01/14 21:08:17;;;;;;;31.77;16.90;;;;;;;-0.54;44.90;99055.38;10477379;28;20250;-72
2024/01/14 21:13:19;;;;;;;34.40;18.10;;;;;;;0.22;44.62;98789.19;10475415;28;20309;-70
2024/01/14 21:18:23;;;;;;;38.33;20.07;;;;;;;0.48;43.70;98884.19;10476135;28;20246;-72
2024/01/14 21:23:25;;;;;;;33.60;16.50;;;;;;;-0.17;45.32;98824.25;10484082;28;20241;-71
2024/01/14 21:28:28;;;;;;;26.83;15.57;;;;;;;-1.44;45.89;99172.94;10475400;28;20329;-70
2024/01/14 21:33:29;;;;;;;28.70;15.03;;;;;;;-0.49;45.12;98980.41;10479011;28;20269;-71
2024/01/14 21:38:31;;;;;;;33.00;17.57;;;;;;;-0.08;43.86;99001.44;10476368;28;20256;-72
2024/01/14 21:43:36;;;;;;;37.60;19.17;;;;;;;0.83;44.03;98765.03;10479660;28;20300;-70
2024/01/14 21:48:38;;;;;;;29.97;16.37;;;;;;;-0.80;45.55;99017.16;10475407;28;20246;-70
2024/01/14 21:53:40;;;;;;;34.57;16.23;;;;;;;0.41;44.20;98847.06;10475015;28;20700;-70
2024/01/14 21:58:42;;;;;;;27.03;14.10;;;;;;;0.09;44.08;99019.22;10471136;28;20244;-69
2024/01/14 22:03:44;;;;;;;26.13;13.83;;;;;;;0.43;44.08;98965.38;10434481;28;20615;-69
2024/01/14 22:08:45;;;;;;;33.73;17.50;;;;;;;1.23;42.67;98871.84;10442203;28;20729;-71
2024/01/14 22:13:47;;;;;;;24.10;14.10;;;;;;;0.13;44.36;99030.28;10475919;28;20293;-71
2024/01/14 22:18:49;;;;;;;29.53;16.40;;;;;;;0.35;44.07;99005.53;10474441;28;20234;-71
2024/01/14 22:23:51;;;;;;;31.57;17.40;;;;;;;-0.48;45.20;99096.91;10476638;28;20618;-71
2024/01/14 22:28:55;;;;;;;31.40;17.07;;;;;;;0.21;45.24;98892.81;10471473;28;20266;-71
2024/01/14 22:33:57;;;;;;;22.63;12.03;;;;;;;-1.19;45.96;99250.59;10453902;28;20445;-71
2024/01/14 22:38:58;;;;;;;26.03;13.30;;;;;;;-0.10;45.41;98985.81;10434595;28;21464;-71
2024/01/14 22:44:00;;;;;;;27.70;16.57;;;;;;;0.79;43.82;98882.16;10435482;28;20244;-71
2024/01/14 22:49:02;;;;;;;28.90;14.80;;;;;;;-0.31;45.76;99045.53;10438044;28;20284;-70
2024/01/14 22:54:04;;;;;;;37.83;16.83;;;;;;;0.12;45.34;98990.00;10467538;28;20238;-71
2024/01/14 22:59:07;;;;;;;29.57;15.53;;;;;;;0.73;45.19;98826.59;10470781;28;20245;-71
2024/01/14 23:04:10;;;;;;;25.17;13.00;;;;;;;-0.75;46.15;99195.44;10436065;28;20616;-70